createdAt,value
2023-03-28T00:00:27.016Z,18.49
2023-03-28T00:05:50.576Z,18.46
2023-03-28T00:11:21.389Z,18.44
2023-03-28T00:16:45.903Z,18.41
2023-03-28T00:22:08.829Z,18.40
2023-03-28T00:27:31.333Z,18.37
2023-03-28T00:32:53.432Z,18.33
2023-03-28T00:38:15.855Z,18.33
2023-03-28T00:43:46.250Z,18.31
2023-03-28T00:49:21.669Z,18.28
2023-03-28T00:54:44.368Z,18.23
2023-03-28T01:00:12.655Z,18.24
2023-03-28T01:05:35.856Z,18.20
2023-03-28T01:10:58.839Z,18.19
2023-03-28T01:16:22.557Z,18.19
2023-03-28T01:22:09.841Z,18.16
2023-03-28T01:27:44.493Z,18.15
2023-03-28T01:33:19.965Z,18.12
2023-03-28T01:39:09.835Z,18.10
2023-03-28T01:44:38.948Z,18.07
2023-03-28T01:50:38.315Z,18.06
2023-03-28T01:56:11.476Z,18.03
2023-03-28T02:02:06.136Z,18.02
2023-03-28T02:07:29.174Z,17.99
2023-03-28T02:12:58.084Z,17.98
2023-03-28T02:18:24.277Z,17.96
2023-03-28T02:23:50.664Z,17.95
2023-03-28T02:29:14.157Z,17.92
2023-03-28T02:34:36.408Z,17.92
2023-03-28T02:39:58.147Z,17.89
2023-03-28T02:45:55.253Z,17.90
2023-03-28T02:51:19.902Z,17.85
2023-03-28T02:56:56.668Z,17.85
2023-03-28T03:02:21.677Z,17.82
2023-03-28T03:07:43.492Z,17.80
2023-03-28T03:13:05.340Z,17.78
2023-03-28T03:18:27.786Z,17.77
2023-03-28T03:23:50.755Z,17.76
2023-03-28T03:29:12.717Z,17.75
2023-03-28T03:34:34.550Z,17.73
2023-03-28T03:39:56.456Z,17.72
2023-03-28T03:45:18.339Z,17.71
2023-03-28T03:50:40.607Z,17.69
2023-03-28T03:56:06.615Z,17.68
2023-03-28T04:01:30.480Z,17.66
2023-03-28T04:06:52.326Z,17.63
2023-03-28T04:12:15.131Z,17.63
2023-03-28T04:17:38.080Z,17.61
2023-03-28T04:23:01.145Z,17.59
2023-03-28T04:28:28.133Z,17.58
2023-03-28T04:33:50.022Z,17.56
2023-03-28T04:39:11.941Z,17.53
2023-03-28T04:44:33.893Z,17.53
2023-03-28T04:49:55.731Z,17.52
2023-03-28T04:55:17.695Z,17.50
2023-03-28T05:00:39.797Z,17.49
2023-03-28T05:06:01.864Z,17.50
2023-03-28T05:11:24.114Z,17.80
2023-03-28T05:16:46.232Z,18.13
2023-03-28T05:22:08.077Z,18.54
2023-03-28T05:27:29.883Z,18.97
2023-03-28T05:32:52.170Z,19.21
2023-03-28T05:38:14.869Z,19.30
2023-03-28T05:43:36.648Z,19.27
2023-03-28T05:48:58.515Z,19.20
2023-03-28T05:54:20.504Z,19.14
2023-03-28T05:59:43.504Z,19.06
2023-03-28T06:05:05.651Z,18.99
2023-03-28T06:15:49.467Z,18.85
2023-03-28T06:21:11.398Z,18.82
2023-03-28T06:26:33.253Z,18.80
2023-03-28T06:31:55.183Z,18.77
2023-03-28T06:37:17.039Z,18.73
2023-03-28T06:42:38.947Z,18.66
2023-03-28T06:48:00.961Z,18.71
2023-03-28T06:53:22.887Z,18.85
2023-03-28T06:58:44.717Z,19.00
2023-03-28T07:04:06.556Z,19.11
2023-03-28T07:09:28.600Z,19.21
2023-03-28T07:14:51.050Z,19.42
2023-03-28T07:20:12.889Z,19.62
2023-03-28T07:25:34.849Z,19.72
2023-03-28T07:30:56.787Z,19.76
2023-03-28T07:36:21.284Z,19.75
2023-03-28T07:41:43.192Z,19.85
2023-03-28T07:47:05.377Z,20.06
2023-03-28T07:52:27.336Z,20.27
2023-03-28T07:57:49.305Z,20.48
2023-03-28T08:03:12.736Z,20.72
2023-03-28T08:08:34.811Z,20.84
2023-03-28T08:13:56.598Z,20.87
2023-03-28T08:19:18.531Z,20.86
2023-03-28T08:24:40.716Z,20.82
2023-03-28T08:30:02.843Z,20.72
2023-03-28T08:35:25.213Z,20.61
2023-03-28T08:40:58.865Z,20.46
2023-03-28T08:46:22.917Z,20.29
2023-03-28T08:51:49.212Z,20.13
2023-03-28T08:57:19.821Z,19.99
2023-03-28T09:02:43.302Z,19.84
2023-03-28T09:08:35.671Z,19.74
2023-03-28T09:14:17.686Z,19.60
2023-03-28T09:19:49.293Z,19.52
2023-03-28T09:25:16.980Z,19.48
2023-03-28T09:30:44.768Z,19.43
2023-03-28T09:36:21.289Z,19.42
2023-03-28T09:42:12.417Z,19.35
2023-03-28T09:47:34.544Z,19.31
2023-03-28T09:52:58.510Z,19.28
2023-03-28T09:58:20.623Z,19.22
2023-03-28T10:03:53.248Z,19.20
2023-03-28T10:09:20.872Z,19.12
2023-03-28T10:14:47.526Z,19.02
2023-03-28T10:20:21.806Z,19.10
2023-03-28T10:25:46.161Z,19.37
2023-03-28T10:31:20.382Z,19.83
2023-03-28T10:36:43.797Z,20.34
2023-03-28T10:42:05.620Z,20.75
2023-03-28T10:47:28.292Z,21.05
2023-03-28T10:52:54.650Z,21.22
2023-03-28T10:58:28.314Z,21.24
2023-03-28T11:04:11.362Z,21.15
2023-03-28T11:09:57.541Z,21.02
2023-03-28T11:15:48.679Z,20.84
2023-03-28T11:21:41.810Z,20.69
2023-03-28T11:27:16.041Z,20.52
2023-03-28T11:32:46.062Z,20.38
2023-03-28T11:38:22.554Z,20.24
2023-03-28T11:43:51.822Z,20.12
2023-03-28T11:49:22.873Z,20.02
2023-03-28T11:55:14.415Z,19.91
2023-03-28T12:00:44.405Z,19.79
2023-03-28T12:06:12.770Z,19.72
2023-03-28T12:11:42.559Z,19.63
2023-03-28T12:17:16.473Z,19.57
2023-03-28T12:22:44.913Z,19.53
2023-03-28T12:28:22.601Z,19.51
2023-03-28T12:34:09.227Z,19.46
2023-03-28T12:39:38.929Z,19.40
2023-03-28T12:45:06.917Z,19.38
2023-03-28T12:50:58.871Z,19.37
2023-03-28T12:56:22.040Z,19.34
2023-03-28T13:01:49.590Z,19.35
2023-03-28T13:07:48.648Z,19.34
2023-03-28T13:13:25.738Z,19.35
2023-03-28T13:18:49.664Z,19.31
2023-03-28T13:24:41.107Z,19.29
2023-03-28T13:30:14.913Z,19.27
2023-03-28T13:35:49.348Z,19.23
2023-03-28T13:41:33.775Z,19.21
2023-03-28T13:46:57.186Z,19.17
2023-03-28T13:52:22.882Z,19.16
2023-03-28T13:57:45.412Z,19.10
2023-03-28T14:03:15.472Z,19.12
2023-03-28T14:08:37.449Z,19.06
2023-03-28T14:14:17.502Z,19.04
2023-03-28T14:19:46.725Z,19.01
2023-03-28T14:25:13.746Z,19.00
2023-03-28T14:30:41.319Z,19.14
2023-03-28T14:36:05.981Z,19.46
2023-03-28T14:41:30.372Z,19.82
2023-03-28T14:46:56.923Z,20.09
2023-03-28T14:52:28.257Z,20.31
2023-03-28T14:57:53.698Z,20.51
2023-03-28T15:03:20.780Z,20.74
2023-03-28T15:08:45.045Z,20.99
2023-03-28T15:14:29.415Z,21.00
2023-03-28T15:19:58.832Z,20.92
2023-03-28T15:25:22.158Z,20.79
2023-03-28T15:30:45.790Z,20.63
2023-03-28T15:36:33.447Z,20.48
2023-03-28T15:42:00.935Z,20.33
2023-03-28T15:47:26.173Z,20.18
2023-03-28T15:52:48.006Z,20.03
2023-03-28T15:58:19.371Z,19.92
2023-03-28T16:03:41.426Z,19.77
2023-03-28T16:09:23.954Z,19.65
2023-03-28T16:14:49.074Z,19.53
2023-03-28T16:20:22.765Z,19.45
2023-03-28T16:25:44.706Z,19.37
2023-03-28T16:31:06.725Z,19.30
2023-03-28T16:36:28.628Z,19.41
2023-03-28T16:41:50.427Z,19.62
2023-03-28T16:47:12.239Z,19.77
2023-03-28T16:52:38.998Z,19.81
2023-03-28T16:58:01.275Z,19.77
2023-03-28T17:03:23.749Z,19.74
2023-03-28T17:08:46.156Z,19.65
2023-03-28T17:14:07.972Z,19.55
2023-03-28T17:19:29.837Z,19.48
2023-03-28T17:24:51.880Z,19.41
2023-03-28T17:30:14.016Z,19.36
2023-03-28T17:35:36.175Z,19.30
2023-03-28T17:40:58.025Z,19.30
2023-03-28T17:46:20.079Z,19.48
2023-03-28T17:51:41.969Z,19.77
2023-03-28T17:57:05.197Z,20.03
2023-03-28T18:02:27.526Z,20.27
2023-03-28T18:07:49.491Z,20.51
2023-03-28T18:13:11.654Z,20.70
2023-03-28T18:18:34.195Z,20.87
2023-03-28T18:23:56.258Z,21.00
2023-03-28T18:29:18.304Z,21.01
2023-03-28T18:34:41.669Z,20.99
2023-03-28T18:40:07.525Z,20.95
2023-03-28T18:45:29.393Z,20.82
2023-03-28T18:50:51.272Z,20.73
2023-03-28T18:56:13.875Z,20.65
2023-03-28T19:01:36.039Z,20.57
2023-03-28T19:06:57.858Z,20.52
2023-03-28T19:12:19.643Z,20.46
2023-03-28T19:17:41.846Z,20.42
2023-03-28T19:23:03.890Z,20.38
2023-03-28T19:28:25.850Z,20.33
2023-03-28T19:33:47.913Z,20.27
2023-03-28T19:39:09.863Z,20.21
2023-03-28T19:44:33.464Z,20.19
2023-03-28T19:49:55.353Z,20.18
2023-03-28T19:55:17.565Z,20.15
2023-03-28T20:00:39.976Z,20.13
2023-03-28T20:06:08.150Z,20.11
2023-03-28T20:11:30.088Z,20.04
2023-03-28T20:16:51.968Z,20.03
2023-03-28T20:22:14.550Z,20.06
2023-03-28T20:27:37.478Z,20.05
2023-03-28T20:32:59.714Z,20.05
2023-03-28T20:38:22.060Z,20.06
2023-03-28T20:43:47.413Z,20.03
2023-03-28T20:49:09.487Z,19.99
2023-03-28T20:54:31.252Z,19.96
2023-03-28T20:59:55.503Z,19.95
2023-03-28T21:05:18.616Z,19.90
2023-03-28T21:10:40.907Z,19.85
2023-03-28T21:16:02.749Z,19.80
2023-03-28T21:21:24.852Z,19.76
2023-03-28T21:26:47.185Z,19.74
2023-03-28T21:32:09.621Z,19.65
2023-03-28T21:37:32.144Z,19.58
2023-03-28T21:42:54.249Z,19.52
2023-03-28T21:48:16.906Z,19.46
2023-03-28T21:53:39.779Z,19.41
2023-03-28T21:59:01.675Z,19.35
2023-03-28T22:04:23.574Z,19.29
2023-03-28T22:09:45.486Z,19.24
2023-03-28T22:15:08.060Z,19.19
2023-03-28T22:20:29.959Z,19.15
2023-03-28T22:25:53.305Z,19.12
2023-03-28T22:31:17.179Z,19.09
2023-03-28T22:36:39.045Z,19.04
2023-03-28T22:42:00.885Z,19.02
2023-03-28T22:47:30.245Z,18.98
2023-03-28T22:52:53.174Z,18.95
2023-03-28T22:58:15.507Z,18.91
2023-03-28T23:03:37.718Z,18.89
2023-03-28T23:09:00.841Z,18.86
2023-03-28T23:14:22.680Z,18.83
2023-03-28T23:19:45.710Z,18.79
2023-03-28T23:25:09.341Z,18.76
2023-03-28T23:30:31.431Z,18.75
2023-03-28T23:35:53.601Z,18.72
2023-03-28T23:41:15.460Z,18.69
2023-03-28T23:46:37.204Z,18.67
2023-03-28T23:51:58.963Z,18.65
2023-03-28T23:57:20.866Z,18.63
